Time;durP1;ratioP1;P1;durP2;ratioP2;P2;SDS_P1;SDS_P2;PMS_P1;PMS_P2;Temp;Humidity;BMP_temperature;BMP_pressure;BME280_temperature;BME280_humidity;BME280_pressure;Samples;Min_cycle;Max_cycle;Signal;HPM_P1;HPM_P2
2023/01/27 00:00:12;;;;;;;22.92;15.25;;;0.30;99.90;;;;;;6195529;23;20532;-69
2023/01/27 00:02:39;;;;;;;21.98;16.35;;;0.30;99.90;;;;;;6179320;23;20197;-69
2023/01/27 00:05:08;;;;;;;18.20;14.50;;;0.20;99.90;;;;;;6185482;23;20206;-69
2023/01/27 00:07:35;;;;;;;19.83;14.35;;;0.20;99.90;;;;;;6196501;23;20193;-69
2023/01/27 00:10:02;;;;;;;18.20;14.48;;;0.20;99.90;;;;;;6181469;23;20193;-69
2023/01/27 00:15:15;;;;;;;20.33;14.90;;;0.10;99.90;;;;;;6228480;23;20588;-69
2023/01/27 00:17:42;;;;;;;20.83;15.48;;;0.10;99.90;;;;;;6206597;23;20652;-69
2023/01/27 00:20:11;;;;;;;20.23;16.05;;;0.10;99.90;;;;;;6204758;23;20185;-69
2023/01/27 00:25:22;;;;;;;16.48;14.02;;;0.10;99.90;;;;;;6179078;23;20285;-68
2023/01/27 00:27:48;;;;;;;18.38;14.50;;;0.10;99.90;;;;;;6178085;23;20193;-69
2023/01/27 00:30:15;;;;;;;16.48;13.77;;;0.10;99.90;;;;;;6221373;23;20182;-69
2023/01/27 00:35:28;;;;;;;18.40;15.32;;;0.10;99.90;;;;;;6190520;23;20186;-68
2023/01/27 00:37:55;;;;;;;16.70;14.90;;;0.20;99.90;;;;;;6181245;23;20615;-68
2023/01/27 00:40:22;;;;;;;17.17;13.73;;;0.20;99.90;;;;;;6206021;23;20178;-68
2023/01/27 00:42:48;;;;;;;14.75;13.15;;;0.20;99.90;;;;;;6198394;23;20186;-68
2023/01/27 00:48:00;;;;;;;15.88;14.18;;;0.20;99.90;;;;;;6196686;23;20636;-68
2023/01/27 00:50:28;;;;;;;16.33;13.70;;;0.20;99.90;;;;;;6195373;23;20195;-69
2023/01/27 00:52:56;;;;;;;16.75;14.27;;;0.20;99.90;;;;;;6183305;23;20193;-69
2023/01/27 00:55:23;;;;;;;15.18;13.10;;;0.20;99.90;;;;;;6183976;23;20217;-69
2023/01/27 00:57:50;;;;;;;15.40;13.27;;;0.20;99.90;;;;;;6183904;23;20182;-69
2023/01/27 01:00:17;;;;;;;16.20;14.35;;;0.20;99.90;;;;;;6189005;23;20186;-69
2023/01/27 01:02:44;;;;;;;17.40;14.57;;;0.10;99.90;;;;;;6179226;23;20186;-68
2023/01/27 01:05:10;;;;;;;18.02;16.10;;;0.20;99.90;;;;;;6197953;23;20951;-69
2023/01/27 01:07:38;;;;;;;20.45;16.90;;;0.20;99.90;;;;;;6187140;23;20617;-69
2023/01/27 01:10:06;;;;;;;20.75;16.42;;;0.20;99.90;;;;;;6211861;23;20182;-69
2023/01/27 01:12:33;;;;;;;17.23;15.15;;;0.20;99.90;;;;;;6179492;23;20193;-69
2023/01/27 01:14:59;;;;;;;16.83;15.02;;;0.20;99.90;;;;;;6224615;23;20185;-69
2023/01/27 01:17:26;;;;;;;16.67;14.70;;;0.20;99.90;;;;;;6193863;23;20193;-69
2023/01/27 01:19:52;;;;;;;17.50;15.18;;;0.20;99.90;;;;;;6197614;23;20198;-69
2023/01/27 01:22:19;;;;;;;17.75;15.32;;;0.20;99.90;;;;;;6188018;23;20213;-68
2023/01/27 01:24:47;;;;;;;16.83;14.57;;;0.20;99.90;;;;;;6235546;23;20215;-68
2023/01/27 01:27:14;;;;;;;15.95;14.27;;;0.20;99.90;;;;;;6178060;23;20622;-69
2023/01/27 01:29:41;;;;;;;16.83;14.73;;;0.20;99.90;;;;;;6191291;23;20187;-69
2023/01/27 01:32:09;;;;;;;16.35;13.93;;;0.20;99.90;;;;;;6190776;23;20210;-69
2023/01/27 01:34:36;;;;;;;15.48;13.90;;;0.20;99.90;;;;;;6202477;23;20204;-69
2023/01/27 01:37:03;;;;;;;16.83;15.10;;;0.20;99.90;;;;;;6188138;23;20186;-69
2023/01/27 01:39:30;;;;;;;18.00;14.65;;;0.20;99.90;;;;;;6210482;23;20197;-68
2023/01/27 01:41:58;;;;;;;15.88;14.18;;;0.20;99.90;;;;;;6184743;23;20539;-69
2023/01/27 01:44:27;;;;;;;17.02;15.23;;;0.20;99.90;;;;;;6213134;23;20541;-69
2023/01/27 01:46:53;;;;;;;16.67;14.60;;;0.30;99.90;;;;;;6208962;23;20234;-68
2023/01/27 01:49:26;;;;;;;14.82;12.82;;;0.30;99.90;;;;;;6194973;23;20583;-69
2023/01/27 01:51:56;;;;;;;13.90;12.40;;;0.30;99.90;;;;;;6184551;23;20706;-68
2023/01/27 01:54:26;;;;;;;16.10;13.27;;;0.30;99.90;;;;;;6201145;23;20661;-68
2023/01/27 01:56:56;;;;;;;16.48;13.18;;;0.30;99.90;;;;;;6194636;23;20177;-69
2023/01/27 01:59:28;;;;;;;13.60;12.20;;;0.30;99.90;;;;;;6225561;23;20190;-69
2023/01/27 02:01:57;;;;;;;14.88;13.27;;;0.30;99.90;;;;;;6191909;23;20214;-69
2023/01/27 02:04:27;;;;;;;15.85;13.45;;;0.30;99.90;;;;;;6195968;23;20213;-69
2023/01/27 02:07:01;;;;;;;16.52;13.57;;;0.30;99.90;;;;;;6195662;23;20185;-69
2023/01/27 02:09:28;;;;;;;14.45;12.93;;;0.30;99.90;;;;;;6199840;23;20178;-69
2023/01/27 02:11:57;;;;;;;15.75;13.60;;;0.30;99.90;;;;;;6198933;23;20206;-69
2023/01/27 02:14:25;;;;;;;16.85;15.05;;;0.30;99.90;;;;;;6190799;23;20186;-69
2023/01/27 02:16:52;;;;;;;15.48;13.85;;;0.30;99.90;;;;;;6196695;23;20182;-69
2023/01/27 02:19:27;;;;;;;14.15;12.70;;;0.40;99.90;;;;;;6200219;23;20181;-69
2023/01/27 02:21:56;;;;;;;13.70;11.88;;;0.40;99.90;;;;;;6210262;23;20681;-69
2023/01/27 02:24:30;;;;;;;14.07;12.60;;;0.40;99.90;;;;;;6188516;23;20221;-69
2023/01/27 02:26:58;;;;;;;14.85;13.35;;;0.40;99.90;;;;;;6180157;23;20191;-69
2023/01/27 02:29:25;;;;;;;13.85;12.32;;;0.40;99.90;;;;;;6191142;23;20197;-69
2023/01/27 02:31:52;;;;;;;13.80;12.32;;;0.40;99.90;;;;;;6199095;23;20271;-69
2023/01/27 02:34:23;;;;;;;15.30;12.55;;;0.40;99.90;;;;;;6193546;23;20189;-69
2023/01/27 02:36:52;;;;;;;14.50;12.75;;;0.50;99.90;;;;;;6222360;23;20186;-69
2023/01/27 02:39:22;;;;;;;13.23;11.82;;;0.50;99.90;;;;;;6182913;23;20189;-69
2023/01/27 02:41:52;;;;;;;13.27;11.88;;;0.50;99.90;;;;;;6193571;23;20209;-68
2023/01/27 02:44:20;;;;;;;15.52;12.70;;;0.50;99.90;;;;;;6193971;23;20213;-68
2023/01/27 02:46:46;;;;;;;14.80;12.65;;;0.50;99.90;;;;;;6201511;23;20181;-68
2023/01/27 02:49:13;;;;;;;13.57;12.18;;;0.50;99.90;;;;;;6207059;23;20597;-68
2023/01/27 02:51:40;;;;;;;15.77;13.10;;;0.50;99.90;;;;;;6210397;23;20205;-68
2023/01/27 02:54:07;;;;;;;12.55;11.20;;;0.40;99.90;;;;;;6200160;23;20194;-68
2023/01/27 02:56:34;;;;;;;14.25;12.85;;;0.40;99.90;;;;;;6178811;23;20677;-68
2023/01/27 02:59:01;;;;;;;15.45;12.55;;;0.40;99.90;;;;;;6195189;23;20641;-69
2023/01/27 03:01:31;;;;;;;14.30;12.60;;;0.40;99.90;;;;;;6206987;23;20226;-69
2023/01/27 03:03:57;;;;;;;16.20;14.50;;;0.40;99.90;;;;;;6183083;23;20202;-68
2023/01/27 03:06:24;;;;;;;14.95;13.35;;;0.40;99.90;;;;;;6178592;23;20193;-69
2023/01/27 03:08:51;;;;;;;15.52;12.55;;;0.40;99.90;;;;;;6179797;23;20186;-69
2023/01/27 03:12:18;;;;;;;14.63;13.02;;;0.40;99.90;;;;;;6183250;23;20252;-68
2023/01/27 03:14:05;;;;;;;16.73;12.95;;;0.40;99.90;;;;;;6179597;23;20225;-69
2023/01/27 03:19:18;;;;;;;16.13;13.30;;;0.40;99.90;;;;;;6190687;23;20187;-68
2023/01/27 03:21:45;;;;;;;15.65;13.93;;;0.40;99.90;;;;;;6187431;23;20206;-68
2023/01/27 03:24:11;;;;;;;15.15;12.85;;;0.40;99.90;;;;;;6192246;23;20634;-68
2023/01/27 03:26:38;;;;;;;15.10;13.48;;;0.40;99.90;;;;;;6191512;23;20193;-69
2023/01/27 03:31:56;;;;;;;16.23;14.52;;;0.40;99.90;;;;;;6193758;23;20209;-69
2023/01/27 03:34:23;;;;;;;18.42;15.93;;;0.40;99.90;;;;;;6179629;23;20198;-68
2023/01/27 03:47:48;;;;;;;16.92;15.13;;;0.40;99.90;;;;;;6198805;23;20819;-68
2023/01/27 03:50:18;;;;;;;21.10;16.33;;;0.40;99.90;;;;;;6184961;23;20213;-69
2023/01/27 03:53:01;;;;;;;18.05;15.85;;;0.40;99.90;;;;;;6206332;23;20189;-68
2023/01/27 03:55:28;;;;;;;16.98;14.93;;;0.40;99.90;;;;;;6186731;23;20245;-68
2023/01/27 03:57:55;;;;;;;19.25;15.68;;;0.40;99.90;;;;;;6180376;23;20193;-69
2023/01/27 04:00:22;;;;;;;17.30;15.50;;;0.40;99.90;;;;;;6185323;23;20272;-69
2023/01/27 04:08:19;;;;;;;17.42;15.55;;;0.40;99.90;;;;;;6180411;23;20182;-68
2023/01/27 04:11:53;;;;;;;19.10;16.02;;;0.40;99.90;;;;;;6184043;23;20206;-68
2023/01/27 04:13:31;;;;;;;18.60;16.52;;;0.40;99.90;;;;;;6180075;23;20526;-68
2023/01/27 04:15:58;;;;;;;17.50;15.10;;;0.40;99.90;;;;;;6183888;23;20198;-68
2023/01/27 04:18:26;;;;;;;19.27;16.45;;;0.40;99.90;;;;;;6209239;23;20204;-68
2023/01/27 04:20:53;;;;;;;18.60;16.50;;;0.50;99.90;;;;;;6196620;23;20220;-68
2023/01/27 04:23:20;;;;;;;17.20;14.18;;;0.50;99.90;;;;;;6196291;23;20186;-68
2023/01/27 04:25:46;;;;;;;17.90;15.85;;;0.50;99.90;;;;;;6182957;23;20238;-69
2023/01/27 04:28:13;;;;;;;19.48;16.48;;;0.40;99.90;;;;;;6215134;23;20182;-69
2023/01/27 04:30:40;;;;;;;18.55;16.55;;;0.50;99.90;;;;;;6199751;23;20206;-69
2023/01/27 04:33:09;;;;;;;19.80;17.02;;;0.40;99.90;;;;;;6177955;23;20185;-69
2023/01/27 04:35:37;;;;;;;19.95;17.35;;;0.40;99.90;;;;;;6184570;23;20530;-69
2023/01/27 04:38:03;;;;;;;19.95;16.50;;;0.40;99.90;;;;;;6189406;23;20186;-69
2023/01/27 04:40:30;;;;;;;20.73;17.45;;;0.40;99.90;;;;;;6187222;23;20254;-69
2023/01/27 04:42:57;;;;;;;18.67;16.67;;;0.40;99.90;;;;;;6194845;23;20185;-69
2023/01/27 04:45:24;;;;;;;20.50;16.38;;;0.40;99.90;;;;;;6185165;23;20218;-69
2023/01/27 04:47:51;;;;;;;18.75;16.73;;;0.40;99.90;;;;;;6184683;23;20183;-69
2023/01/27 04:50:18;;;;;;;21.42;18.08;;;0.40;99.90;;;;;;6188555;23;20210;-68
2023/01/27 04:52:46;;;;;;;17.55;15.68;;;0.40;99.90;;;;;;6202732;23;20897;-68
2023/01/27 04:55:12;;;;;;;20.38;17.20;;;0.40;99.90;;;;;;6179779;23;20576;-69
2023/01/27 04:57:39;;;;;;;18.25;15.75;;;0.40;99.90;;;;;;6180383;23;20182;-69
2023/01/27 05:00:07;;;;;;;19.10;16.55;;;0.40;99.90;;;;;;6194685;23;20201;-68
2023/01/27 05:02:33;;;;;;;19.60;17.50;;;0.40;99.90;;;;;;6221721;23;20936;-69
2023/01/27 05:05:03;;;;;;;21.23;16.42;;;0.30;99.90;;;;;;6178155;23;20547;-68
2023/01/27 05:07:30;;;;;;;22.77;18.02;;;0.30;99.90;;;;;;6197886;23;20190;-69
2023/01/27 05:09:58;;;;;;;22.52;17.92;;;0.30;99.90;;;;;;6179281;23;20482;-69
2023/01/27 05:12:25;;;;;;;21.75;17.90;;;0.20;99.90;;;;;;6200759;23;20185;-69
2023/01/27 05:14:52;;;;;;;21.80;18.40;;;0.30;99.90;;;;;;6184233;23;20198;-69
2023/01/27 05:17:19;;;;;;;21.90;17.73;;;0.30;99.90;;;;;;6200894;23;20378;-68
2023/01/27 05:19:45;;;;;;;20.08;16.92;;;0.20;99.90;;;;;;6178211;23;20186;-69
2023/01/27 05:22:12;;;;;;;20.35;17.15;;;0.20;99.90;;;;;;6192382;23;20183;-68
2023/01/27 05:24:38;;;;;;;18.05;15.38;;;0.20;99.90;;;;;;6208255;23;20185;-68
2023/01/27 05:27:07;;;;;;;19.92;16.73;;;0.30;99.90;;;;;;6204850;23;20186;-69
2023/01/27 05:29:33;;;;;;;19.50;15.30;;;0.30;99.90;;;;;;6196787;23;20177;-69
2023/01/27 05:32:00;;;;;;;19.00;16.05;;;0.40;99.90;;;;;;6195929;23;20213;-69
2023/01/27 05:34:26;;;;;;;16.40;14.15;;;0.40;99.90;;;;;;6194481;23;20186;-69
2023/01/27 05:36:53;;;;;;;18.13;14.98;;;0.50;99.90;;;;;;6187810;23;20185;-69
2023/01/27 05:39:20;;;;;;;16.92;14.35;;;0.50;99.90;;;;;;6179444;23;20190;-69
2023/01/27 05:41:47;;;;;;;16.30;13.65;;;0.50;99.90;;;;;;6186392;23;20214;-69
2023/01/27 05:44:15;;;;;;;17.42;14.25;;;0.50;99.90;;;;;;6185885;23;20194;-69
2023/01/27 05:46:42;;;;;;;16.30;14.38;;;0.50;99.90;;;;;;6177112;23;20222;-70
2023/01/27 05:49:08;;;;;;;18.02;15.73;;;0.50;99.90;;;;;;6198398;23;20183;-70
2023/01/27 05:51:38;;;;;;;16.13;13.65;;;0.50;99.90;;;;;;6193787;23;20213;-71
2023/01/27 05:54:05;;;;;;;17.45;15.75;;;0.50;99.90;;;;;;6203865;23;20713;-70
2023/01/27 05:56:33;;;;;;;21.52;19.52;;;0.50;99.90;;;;;;6193950;23;20198;-70
2023/01/27 05:59:00;;;;;;;15.60;13.90;;;0.50;99.90;;;;;;6203305;23;20186;-69
2023/01/27 06:01:30;;;;;;;17.25;14.10;;;0.60;99.90;;;;;;6200547;23;20681;-69
2023/01/27 06:03:57;;;;;;;16.38;14.20;;;0.50;99.90;;;;;;6204659;23;20197;-69
2023/01/27 06:06:25;;;;;;;16.88;14.23;;;0.50;99.90;;;;;;6197429;23;20214;-70
2023/01/27 06:08:52;;;;;;;15.35;13.25;;;0.50;99.90;;;;;;6206953;23;20539;-70
2023/01/27 06:11:21;;;;;;;16.02;14.25;;;0.50;99.90;;;;;;6187131;23;20206;-70
2023/01/27 06:13:48;;;;;;;14.25;12.68;;;0.50;99.90;;;;;;6182359;23;20190;-70
2023/01/27 06:16:17;;;;;;;18.77;14.15;;;0.50;99.90;;;;;;6186594;23;20186;-70
2023/01/27 06:18:46;;;;;;;17.17;14.00;;;0.60;99.90;;;;;;6196332;23;20190;-69
2023/01/27 06:21:14;;;;;;;15.13;13.40;;;0.60;99.90;;;;;;6202896;23;20202;-69
2023/01/27 06:23:41;;;;;;;17.33;14.25;;;0.60;99.90;;;;;;6201813;23;20631;-70
2023/01/27 06:26:11;;;;;;;15.07;13.32;;;0.60;99.90;;;;;;6200021;23;20217;-69
2023/01/27 06:28:38;;;;;;;16.70;14.05;;;0.60;99.90;;;;;;6199661;23;20186;-70
2023/01/27 06:31:06;;;;;;;16.50;13.95;;;0.60;99.90;;;;;;6193637;23;20198;-69
2023/01/27 06:33:34;;;;;;;16.50;13.85;;;0.60;99.90;;;;;;6202000;23;20201;-70
2023/01/27 06:36:03;;;;;;;16.02;14.32;;;0.60;99.90;;;;;;6199632;23;20182;-70
2023/01/27 06:38:30;;;;;;;17.58;15.13;;;0.60;99.90;;;;;;6194999;23;20182;-69
2023/01/27 06:40:57;;;;;;;15.65;13.93;;;0.60;99.90;;;;;;6201891;23;20218;-68
2023/01/27 06:43:23;;;;;;;16.70;14.90;;;0.60;99.90;;;;;;6194530;23;20214;-68
2023/01/27 06:45:51;;;;;;;17.00;15.13;;;0.60;99.90;;;;;;6198782;23;20209;-69
2023/01/27 06:48:17;;;;;;;16.08;13.25;;;0.60;99.90;;;;;;6197466;23;20178;-68
2023/01/27 06:50:44;;;;;;;20.02;15.27;;;0.60;99.90;;;;;;6203959;23;20217;-68
2023/01/27 06:53:12;;;;;;;24.55;17.75;;;0.60;99.90;;;;;;6204818;23;20198;-68
2023/01/27 06:55:40;;;;;;;16.90;13.77;;;0.70;99.90;;;;;;6194125;23;20199;-69
2023/01/27 06:58:07;;;;;;;19.60;17.60;;;0.70;99.90;;;;;;6197087;23;20182;-69
2023/01/27 07:00:35;;;;;;;17.17;14.85;;;0.70;99.90;;;;;;6197841;23;20202;-68
2023/01/27 07:03:01;;;;;;;18.42;15.43;;;0.70;99.90;;;;;;6202411;23;20194;-70
2023/01/27 07:05:28;;;;;;;17.52;14.68;;;0.70;99.90;;;;;;6196436;23;20209;-70
2023/01/27 07:07:55;;;;;;;16.38;14.10;;;0.70;99.90;;;;;;6192753;23;20253;-70
2023/01/27 07:10:23;;;;;;;16.58;14.77;;;0.80;99.90;;;;;;6199218;23;20209;-69
2023/01/27 07:12:50;;;;;;;16.88;13.85;;;0.80;99.90;;;;;;6187904;23;20186;-70
2023/01/27 07:15:17;;;;;;;16.35;13.77;;;0.70;99.90;;;;;;6203540;23;20190;-68
2023/01/27 07:17:44;;;;;;;16.25;13.38;;;0.70;99.90;;;;;;6204240;23;20314;-68
2023/01/27 07:20:13;;;;;;;15.18;13.57;;;0.70;99.90;;;;;;6192640;23;20845;-69
2023/01/27 07:22:40;;;;;;;14.70;13.10;;;0.70;99.90;;;;;;6189906;23;20178;-68
2023/01/27 07:25:07;;;;;;;15.00;13.30;;;0.70;99.90;;;;;;6194857;23;20182;-69
2023/01/27 07:27:35;;;;;;;13.40;11.43;;;0.70;99.90;;;;;;6197572;23;20194;-70
2023/01/27 07:30:02;;;;;;;12.25;10.27;;;0.70;99.90;;;;;;6193865;23;20209;-69
2023/01/27 07:32:29;;;;;;;11.68;10.48;;;0.60;99.90;;;;;;6192887;23;20182;-69
2023/01/27 07:34:55;;;;;;;14.07;11.13;;;0.60;99.90;;;;;;6188448;23;20181;-70
2023/01/27 07:37:22;;;;;;;12.32;10.73;;;0.60;99.90;;;;;;6202790;23;20205;-70
2023/01/27 07:39:49;;;;;;;12.23;10.77;;;0.70;99.90;;;;;;6203916;23;20209;-69
2023/01/27 07:42:15;;;;;;;14.77;10.70;;;0.60;99.90;;;;;;6198960;23;20181;-69
2023/01/27 07:44:43;;;;;;;14.05;11.40;;;0.70;99.90;;;;;;6194842;23;20186;-70
2023/01/27 07:47:10;;;;;;;11.93;10.25;;;0.70;99.90;;;;;;6201487;23;20209;-69
2023/01/27 07:49:37;;;;;;;13.40;10.73;;;0.70;99.90;;;;;;6198565;23;20197;-70
2023/01/27 07:52:04;;;;;;;13.30;11.65;;;0.70;99.90;;;;;;6189476;23;20182;-70
2023/01/27 07:54:30;;;;;;;12.82;11.23;;;0.70;99.90;;;;;;6195215;23;20174;-70
2023/01/27 07:57:00;;;;;;;13.43;11.38;;;0.70;99.90;;;;;;6206727;23;20193;-70
2023/01/27 07:59:27;;;;;;;13.93;11.82;;;0.70;99.90;;;;;;6207659;23;20258;-69
2023/01/27 08:01:55;;;;;;;11.68;9.85;;;0.70;99.90;;;;;;6200329;23;20186;-69
2023/01/27 08:04:22;;;;;;;11.90;10.00;;;0.70;99.90;;;;;;6208005;23;20656;-68
2023/01/27 08:06:48;;;;;;;12.02;9.90;;;0.70;99.90;;;;;;6204831;23;20209;-68
2023/01/27 08:09:15;;;;;;;13.55;10.80;;;0.70;99.90;;;;;;6206940;23;20201;-69
2023/01/27 08:11:42;;;;;;;12.98;10.63;;;0.70;99.90;;;;;;6200618;23;20182;-69
2023/01/27 08:14:08;;;;;;;14.93;11.50;;;0.60;99.90;;;;;;6208807;23;20629;-69
2023/01/27 08:16:35;;;;;;;13.80;11.68;;;0.60;99.90;;;;;;6200345;23;20185;-69
2023/01/27 08:19:03;;;;;;;13.68;10.77;;;0.60;99.90;;;;;;6206004;23;20202;-69
2023/01/27 08:21:31;;;;;;;14.43;11.73;;;0.50;99.90;;;;;;6204945;23;20275;-69
2023/01/27 08:23:59;;;;;;;15.32;11.95;;;0.40;99.90;;;;;;6206461;23;20601;-70
2023/01/27 08:26:26;;;;;;;15.60;12.15;;;0.40;99.90;;;;;;6204064;23;20194;-69
2023/01/27 08:28:53;;;;;;;15.63;11.48;;;0.40;99.90;;;;;;6208034;23;20205;-69
2023/01/27 08:31:20;;;;;;;16.48;12.05;;;0.50;99.90;;;;;;6203665;23;20186;-69
2023/01/27 08:33:51;;;;;;;14.32;12.43;;;0.50;99.90;;;;;;6208860;23;20188;-69
2023/01/27 08:36:21;;;;;;;16.45;12.20;;;0.60;99.90;;;;;;6202619;23;20205;-69
2023/01/27 08:38:49;;;;;;;15.10;12.48;;;0.60;99.90;;;;;;6207353;23;20210;-68
2023/01/27 08:41:18;;;;;;;17.02;13.20;;;0.60;99.90;;;;;;6204846;23;20189;-68
2023/01/27 08:43:45;;;;;;;15.35;12.05;;;0.70;99.90;;;;;;6206469;23;20186;-69
2023/01/27 08:46:12;;;;;;;14.52;11.77;;;0.70;99.90;;;;;;6205233;23;20212;-69
2023/01/27 08:48:39;;;;;;;15.50;12.02;;;0.70;99.90;;;;;;6206066;23;20272;-68
2023/01/27 08:51:07;;;;;;;17.13;13.30;;;0.60;99.90;;;;;;6206019;23;20193;-69
2023/01/27 08:53:36;;;;;;;15.13;11.75;;;0.50;99.90;;;;;;6206843;23;20209;-68
2023/01/27 08:56:06;;;;;;;16.27;13.07;;;0.50;99.90;;;;;;6204197;23;20190;-69
2023/01/27 08:58:33;;;;;;;18.92;13.63;;;0.40;99.90;;;;;;6205140;23;20677;-69
2023/01/27 09:01:00;;;;;;;19.17;13.52;;;0.40;99.90;;;;;;6205700;23;20185;-69
2023/01/27 09:03:27;;;;;;;17.98;13.05;;;0.40;99.90;;;;;;6209085;23;20178;-69
2023/01/27 09:05:54;;;;;;;16.75;11.93;;;0.40;99.90;;;;;;6202305;23;20186;-69
2023/01/27 09:08:20;;;;;;;17.27;13.15;;;0.40;99.90;;;;;;6206901;23;20186;-69
2023/01/27 09:10:48;;;;;;;20.02;17.00;;;0.40;99.90;;;;;;6204093;23;20192;-69
2023/01/27 09:13:17;;;;;;;16.15;11.68;;;0.40;99.90;;;;;;6206263;23;20189;-69
2023/01/27 09:15:45;;;;;;;17.73;12.05;;;0.50;99.90;;;;;;6205563;23;20651;-69
2023/01/27 09:18:11;;;;;;;17.17;12.35;;;0.50;99.90;;;;;;6206951;23;20632;-69
2023/01/27 09:20:38;;;;;;;16.27;12.00;;;0.60;99.90;;;;;;6202989;23;20186;-69
2023/01/27 09:23:05;;;;;;;16.50;11.90;;;0.60;99.90;;;;;;6196766;23;20182;-69
2023/01/27 09:25:32;;;;;;;20.17;12.88;;;0.70;99.90;;;;;;6194233;23;20182;-68
2023/01/27 09:28:00;;;;;;;16.48;12.23;;;0.70;99.90;;;;;;6196958;23;20271;-70
2023/01/27 09:30:28;;;;;;;17.27;11.10;;;0.80;99.90;;;;;;6192778;23;20194;-70
2023/01/27 09:32:58;;;;;;;16.05;12.48;;;0.80;99.90;;;;;;6194318;23;20186;-70
2023/01/27 09:35:26;;;;;;;17.05;12.38;;;0.90;99.90;;;;;;6200737;23;20236;-70
2023/01/27 09:37:56;;;;;;;14.82;11.13;;;0.90;99.90;;;;;;6197233;23;20265;-70
2023/01/27 09:40:30;;;;;;;16.20;11.70;;;0.90;99.90;;;;;;6192872;23;20212;-70
2023/01/27 09:43:30;;;;;;;17.83;13.77;;;1.00;99.90;;;;;;6203684;23;20701;-70
2023/01/27 09:46:25;;;;;;;18.80;12.63;;;1.00;99.90;;;;;;6190585;23;20186;-70
2023/01/27 09:49:17;;;;;;;18.88;13.10;;;1.10;99.90;;;;;;6196558;23;20208;-70
2023/01/27 09:51:52;;;;;;;15.98;11.50;;;1.10;99.90;;;;;;6191209;23;20251;-70
2023/01/27 09:54:50;;;;;;;14.07;10.48;;;1.10;99.90;;;;;;6189674;23;20209;-70
2023/01/27 09:57:24;;;;;;;17.25;12.52;;;1.20;99.90;;;;;;6166577;23;20230;-70
2023/01/27 10:00:06;;;;;;;14.65;12.02;;;1.30;99.90;;;;;;6199838;23;20213;-69
2023/01/27 10:02:59;;;;;;;13.00;10.02;;;1.40;99.90;;;;;;6192425;23;20180;-69
2023/01/27 10:05:57;;;;;;;14.23;10.43;;;1.40;99.90;;;;;;6201988;23;20201;-70
2023/01/27 10:08:43;;;;;;;13.38;10.60;;;1.50;99.90;;;;;;6195006;23;20233;-70
2023/01/27 10:11:20;;;;;;;13.20;10.55;;;1.60;99.90;;;;;;6197739;23;20185;-69
2023/01/27 10:13:57;;;;;;;11.55;9.57;;;1.70;99.90;;;;;;6199721;23;20179;-69
2023/01/27 10:16:45;;;;;;;12.10;9.15;;;1.80;99.90;;;;;;6198449;23;20193;-70
2023/01/27 10:19:30;;;;;;;13.10;9.30;;;1.80;99.90;;;;;;6205156;23;20206;-69
2023/01/27 10:22:07;;;;;;;12.85;10.40;;;1.80;99.90;;;;;;6199049;23;20191;-70
2023/01/27 10:24:46;;;;;;;11.65;9.68;;;1.90;99.90;;;;;;6196962;23;20541;-70
2023/01/27 10:27:17;;;;;;;10.65;8.70;;;2.00;99.90;;;;;;6199949;23;20700;-69
2023/01/27 10:29:46;;;;;;;12.27;9.40;;;2.00;99.90;;;;;;6195201;23;20264;-70
2023/01/27 10:32:25;;;;;;;9.90;8.68;;;2.00;99.90;;;;;;6208323;23;20191;-69
2023/01/27 10:35:04;;;;;;;10.55;8.98;;;2.00;99.90;;;;;;6197430;23;20193;-70
2023/01/27 10:37:40;;;;;;;10.90;8.75;;;2.00;99.90;;;;;;6205071;23;20183;-70
2023/01/27 10:40:15;;;;;;;10.55;8.00;;;2.00;99.90;;;;;;6201228;23;20205;-69
2023/01/27 10:42:47;;;;;;;11.15;8.40;;;2.00;99.90;;;;;;6197961;23;20185;-69
2023/01/27 10:45:24;;;;;;;9.98;8.15;;;2.10;99.90;;;;;;6199155;23;20188;-69
2023/01/27 10:48:17;;;;;;;9.52;8.52;;;2.10;99.90;;;;;;6200234;23;20201;-70
2023/01/27 10:50:47;;;;;;;11.25;9.10;;;2.10;99.90;;;;;;6204774;23;20192;-69
2023/01/27 10:53:20;;;;;;;10.05;8.52;;;2.10;99.90;;;;;;6201444;23;20188;-69
2023/01/27 10:55:52;;;;;;;9.75;8.15;;;2.10;99.90;;;;;;6194620;23;20190;-69
2023/01/27 10:58:30;;;;;;;9.05;8.00;;;2.10;99.90;;;;;;6203983;23;20557;-69
2023/01/27 11:00:59;;;;;;;10.13;8.05;;;2.10;99.90;;;;;;6205208;23;20188;-69
2023/01/27 11:03:33;;;;;;;10.48;8.95;;;2.10;99.90;;;;;;6193505;23;20270;-69
2023/01/27 11:06:03;;;;;;;11.32;9.45;;;2.00;99.90;;;;;;6199965;23;20647;-69
2023/01/27 11:08:34;;;;;;;10.30;8.35;;;2.00;99.90;;;;;;6199175;23;20656;-69
2023/01/27 11:13:50;;;;;;;10.85;9.32;;;1.70;99.90;;;;;;6203842;23;20182;-68
2023/01/27 11:16:19;;;;;;;11.63;9.90;;;1.80;99.90;;;;;;6203111;23;20188;-69
2023/01/27 11:18:55;;;;;;;10.40;9.30;;;1.80;99.90;;;;;;6200812;23;20215;-69
2023/01/27 11:21:25;;;;;;;12.88;10.00;;;1.80;99.90;;;;;;6201980;23;20186;-70
2023/01/27 11:23:55;;;;;;;10.40;9.18;;;1.90;99.90;;;;;;6197316;23;20753;-69
2023/01/27 11:26:33;;;;;;;11.38;10.18;;;2.00;99.90;;;;;;6202636;23;20188;-69
2023/01/27 11:29:15;;;;;;;12.95;10.60;;;2.00;99.90;;;;;;6207463;23;20289;-69
2023/01/27 11:31:48;;;;;;;12.38;10.85;;;2.00;99.90;;;;;;6203907;23;20549;-69
2023/01/27 11:34:22;;;;;;;12.57;11.27;;;2.00;99.90;;;;;;6204191;23;20653;-69
2023/01/27 11:36:49;;;;;;;13.65;11.27;;;2.10;99.90;;;;;;6200507;23;20181;-69
2023/01/27 11:39:17;;;;;;;14.38;12.90;;;2.10;99.90;;;;;;6201569;23;20207;-69
2023/01/27 11:41:48;;;;;;;14.40;12.02;;;2.10;99.90;;;;;;6191507;23;20187;-68
2023/01/27 11:44:20;;;;;;;15.23;13.73;;;2.10;99.90;;;;;;6180570;23;20597;-68
2023/01/27 11:46:49;;;;;;;12.95;11.38;;;2.10;99.90;;;;;;6201730;23;20186;-69
2023/01/27 11:49:22;;;;;;;14.20;11.57;;;2.10;99.90;;;;;;6178099;23;20209;-68
2023/01/27 11:51:49;;;;;;;14.43;11.50;;;2.10;99.90;;;;;;6185949;23;20204;-69
2023/01/27 11:54:20;;;;;;;13.77;12.10;;;2.10;99.90;;;;;;6189503;23;20233;-68
2023/01/27 11:56:48;;;;;;;13.82;11.60;;;2.10;99.90;;;;;;6213571;23;20194;-68
2023/01/27 11:59:20;;;;;;;13.45;11.82;;;2.10;99.90;;;;;;6222151;23;20201;-79
2023/01/27 12:01:52;;;;;;;12.95;11.23;;;2.10;99.90;;;;;;6185178;23;20189;-69
2023/01/27 12:04:24;;;;;;;12.60;10.73;;;2.10;99.90;;;;;;6200771;23;20194;-69
2023/01/27 12:06:55;;;;;;;14.23;11.35;;;2.10;99.90;;;;;;6193630;23;20185;-69
2023/01/27 12:09:34;;;;;;;13.70;12.10;;;2.10;99.90;;;;;;6192028;23;20541;-69
2023/01/27 12:12:18;;;;;;;15.05;12.20;;;2.10;99.90;;;;;;6188231;23;20178;-70
2023/01/27 12:14:48;;;;;;;15.07;12.30;;;2.20;99.90;;;;;;6201112;23;20191;-70
2023/01/27 12:17:22;;;;;;;14.68;13.10;;;2.20;99.90;;;;;;6191310;23;20197;-70
2023/01/27 12:19:52;;;;;;;14.05;12.45;;;2.20;99.90;;;;;;6195543;23;20205;-69
2023/01/27 12:22:26;;;;;;;13.25;11.63;;;2.10;99.90;;;;;;6190106;23;20191;-69
2023/01/27 12:24:55;;;;;;;14.60;11.80;;;2.10;99.90;;;;;;6192652;23;20184;-68
2023/01/27 12:27:25;;;;;;;14.02;12.45;;;2.20;99.90;;;;;;6203191;23;20234;-70
2023/01/27 12:29:55;;;;;;;16.98;13.48;;;2.20;99.90;;;;;;6204138;23;20207;-70
2023/01/27 12:32:24;;;;;;;15.25;13.30;;;2.20;99.90;;;;;;6199096;23;20689;-69
2023/01/27 12:34:55;;;;;;;15.48;13.25;;;2.20;99.90;;;;;;6203045;23;20189;-69
2023/01/27 12:37:26;;;;;;;14.88;13.20;;;2.20;99.90;;;;;;6195935;23;20199;-69
2023/01/27 12:39:59;;;;;;;17.23;12.95;;;2.20;99.90;;;;;;6206537;23;20207;-69
2023/01/27 12:42:38;;;;;;;16.02;13.55;;;2.20;99.90;;;;;;6203071;23;20183;-69
2023/01/27 12:45:28;;;;;;;17.27;14.05;;;2.20;99.90;;;;;;6206474;23;20182;-69
2023/01/27 12:48:01;;;;;;;14.82;13.15;;;2.20;99.90;;;;;;6194462;23;20674;-69
2023/01/27 12:50:31;;;;;;;13.07;11.68;;;2.20;99.90;;;;;;6190224;23;20183;-69
2023/01/27 12:53:05;;;;;;;14.18;11.68;;;2.20;99.90;;;;;;6197600;23;20178;-69
2023/01/27 12:55:34;;;;;;;17.52;13.10;;;2.20;99.90;;;;;;6189139;23;20191;-69
2023/01/27 12:58:01;;;;;;;17.05;12.27;;;2.30;99.90;;;;;;6201655;23;20210;-69
2023/01/27 13:00:29;;;;;;;15.75;12.90;;;2.20;99.90;;;;;;6204499;23;20187;-69
2023/01/27 13:03:03;;;;;;;13.88;12.35;;;2.10;99.90;;;;;;6200296;23;20257;-69
2023/01/27 13:05:36;;;;;;;13.88;12.23;;;2.10;99.90;;;;;;6195096;23;20202;-69
2023/01/27 13:08:04;;;;;;;14.82;13.23;;;2.10;99.90;;;;;;6184446;23;20217;-69
2023/01/27 13:10:31;;;;;;;15.10;12.25;;;2.10;99.90;;;;;;6196111;23;20189;-69
2023/01/27 13:13:00;;;;;;;13.23;11.82;;;2.10;99.90;;;;;;6200456;23;20187;-69
2023/01/27 13:15:29;;;;;;;14.18;10.98;;;2.10;99.90;;;;;;6180647;23;20267;-69
2023/01/27 13:17:57;;;;;;;15.27;12.50;;;2.10;99.90;;;;;;6203382;23;20216;-68
2023/01/27 13:20:28;;;;;;;114.60;105.18;;;2.20;99.90;;;;;;6181721;23;20191;-69
2023/01/27 13:23:01;;;;;;;17.15;15.35;;;2.90;99.90;;;;;;6175903;23;20191;-68
2023/01/27 13:25:34;;;;;;;12.70;11.23;;;3.20;99.90;;;;;;6185313;23;20525;-68